createdAt,value
2023-02-06T00:01:31.772Z,1.13
2023-02-06T00:04:01.049Z,1.07
2023-02-06T00:06:28.961Z,1.10
2023-02-06T00:08:56.987Z,0.87
2023-02-06T00:11:25.468Z,1.00
2023-02-06T00:13:53.468Z,1.07
2023-02-06T00:16:23.495Z,0.90
2023-02-06T00:18:51.841Z,0.93
2023-02-06T00:21:22.111Z,1.17
2023-02-06T00:23:50.651Z,1.30
2023-02-06T00:26:19.093Z,1.10
2023-02-06T00:28:47.786Z,1.13
2023-02-06T00:31:16.690Z,0.93
2023-02-06T00:33:44.700Z,1.40
2023-02-06T00:36:12.909Z,1.00
2023-02-06T00:38:42.332Z,0.90
2023-02-06T00:41:10.315Z,1.10
2023-02-06T00:43:38.491Z,0.90
2023-02-06T00:46:06.892Z,0.87
2023-02-06T00:48:34.879Z,1.10
2023-02-06T00:51:02.716Z,1.20
2023-02-06T00:53:31.027Z,1.20
2023-02-06T00:56:00.364Z,1.17
2023-02-06T00:58:28.238Z,1.17
2023-02-06T01:00:56.267Z,0.97
2023-02-06T01:03:24.176Z,1.10
2023-02-06T01:05:52.010Z,0.90
2023-02-06T01:08:20.010Z,1.27
2023-02-06T01:10:47.976Z,1.13
2023-02-06T01:13:17.224Z,0.90
2023-02-06T01:15:45.452Z,0.77
2023-02-06T01:18:13.566Z,1.43
2023-02-06T01:20:42.230Z,1.37
2023-02-06T01:23:10.697Z,1.10
2023-02-06T01:25:38.800Z,0.90
2023-02-06T01:28:06.683Z,0.77
2023-02-06T01:30:36.069Z,1.10
2023-02-06T01:33:03.971Z,0.73
2023-02-06T01:35:31.827Z,0.80
2023-02-06T01:37:59.823Z,1.13
2023-02-06T01:40:27.997Z,1.03
2023-02-06T01:42:55.857Z,1.13
2023-02-06T01:45:39.381Z,0.90
2023-02-06T01:48:11.386Z,0.80
2023-02-06T01:50:42.963Z,1.27
2023-02-06T01:53:11.267Z,0.90
2023-02-06T01:55:42.729Z,0.90
2023-02-06T01:58:15.568Z,1.13
2023-02-06T02:00:45.217Z,0.90
2023-02-06T02:03:13.478Z,1.10
2023-02-06T02:05:44.594Z,1.03
2023-02-06T02:08:18.614Z,0.80
2023-02-06T02:10:47.106Z,1.00
2023-02-06T02:13:15.220Z,1.20
2023-02-06T02:15:57.456Z,1.13
2023-02-06T02:18:43.713Z,0.80
2023-02-06T02:22:05.433Z,0.80
2023-02-06T02:24:49.935Z,1.00
2023-02-06T02:27:51.844Z,0.80
2023-02-06T02:30:52.600Z,1.10
2023-02-06T02:33:48.203Z,0.90
2023-02-06T02:36:23.569Z,0.93
2023-02-06T02:39:00.252Z,1.10
2023-02-06T02:41:33.793Z,0.63
2023-02-06T02:44:08.880Z,1.00
2023-02-06T02:46:39.958Z,0.87
2023-02-06T02:49:12.759Z,0.83
2023-02-06T02:51:43.099Z,0.80
2023-02-06T02:54:11.753Z,1.13
2023-02-06T02:56:40.093Z,1.13
2023-02-06T02:59:12.615Z,1.00
2023-02-06T03:01:45.374Z,1.17
2023-02-06T03:04:17.909Z,1.00
2023-02-06T03:07:05.526Z,1.10
2023-02-06T03:09:47.037Z,0.97
2023-02-06T03:12:23.256Z,1.10
2023-02-06T03:14:55.193Z,1.00
2023-02-06T03:17:32.705Z,1.10
2023-02-06T03:20:03.075Z,1.23
2023-02-06T03:22:34.244Z,1.23
2023-02-06T03:25:05.847Z,1.07
2023-02-06T03:27:35.026Z,1.30
2023-02-06T03:30:05.716Z,0.93
2023-02-06T03:32:36.042Z,1.17
2023-02-06T03:35:08.198Z,0.87
2023-02-06T03:37:39.263Z,1.00
2023-02-06T03:40:09.649Z,0.93
2023-02-06T03:42:42.240Z,0.73
2023-02-06T03:45:17.013Z,1.30
2023-02-06T03:47:47.187Z,0.90
2023-02-06T03:50:16.145Z,0.93
2023-02-06T03:52:49.811Z,1.00
2023-02-06T03:55:21.249Z,1.17
2023-02-06T03:57:54.006Z,1.23
2023-02-06T04:00:22.898Z,1.23
2023-02-06T04:02:52.544Z,1.30
2023-02-06T04:05:20.972Z,1.50
2023-02-06T04:07:50.515Z,1.20
2023-02-06T04:10:18.627Z,0.90
2023-02-06T04:12:46.549Z,1.13
2023-02-06T04:15:14.390Z,1.27
2023-02-06T04:17:57.521Z,1.07
2023-02-06T04:20:27.772Z,1.07
2023-02-06T04:22:57.542Z,1.40
2023-02-06T04:25:25.607Z,1.00
2023-02-06T04:27:53.636Z,1.10
2023-02-06T04:30:21.778Z,1.73
2023-02-06T04:32:49.592Z,1.13
2023-02-06T04:35:17.680Z,1.23
2023-02-06T04:37:45.644Z,1.03
2023-02-06T04:40:15.099Z,1.13
2023-02-06T04:42:43.218Z,1.20
2023-02-06T04:45:11.239Z,1.20
2023-02-06T04:47:39.145Z,1.27
2023-02-06T04:50:08.317Z,1.10
2023-02-06T04:52:36.376Z,1.30
2023-02-06T04:55:04.246Z,1.00
2023-02-06T04:57:33.583Z,1.20
2023-02-06T05:00:01.645Z,1.47
2023-02-06T05:02:29.513Z,1.47
2023-02-06T05:04:57.490Z,0.87
2023-02-06T05:07:25.631Z,1.10
2023-02-06T05:09:53.489Z,1.33
2023-02-06T05:12:21.489Z,1.10
2023-02-06T05:14:50.794Z,1.20
2023-02-06T05:17:18.618Z,1.13
2023-02-06T05:19:46.982Z,1.50
2023-02-06T05:22:14.956Z,1.13
2023-02-06T05:24:42.779Z,1.03
2023-02-06T05:27:10.793Z,1.17
2023-02-06T05:29:38.791Z,1.17
2023-02-06T05:32:08.083Z,1.60
2023-02-06T05:34:36.091Z,1.10
2023-02-06T05:37:04.070Z,1.70
2023-02-06T05:39:31.929Z,1.20
2023-02-06T05:41:59.974Z,1.00
2023-02-06T05:44:27.971Z,1.73
2023-02-06T05:46:55.860Z,1.10
2023-02-06T05:49:25.212Z,1.20
2023-02-06T05:51:53.265Z,1.10
2023-02-06T05:54:21.086Z,1.53
2023-02-06T05:56:49.107Z,1.40
2023-02-06T05:59:17.091Z,1.20
2023-02-06T06:01:44.890Z,1.30
2023-02-06T06:04:13.286Z,1.07
2023-02-06T06:06:42.880Z,1.20
2023-02-06T06:09:10.714Z,1.47
2023-02-06T06:11:38.739Z,1.47
2023-02-06T06:14:06.653Z,0.97
2023-02-06T06:16:34.603Z,1.23
2023-02-06T06:19:03.110Z,1.50
2023-02-06T06:21:31.239Z,1.10
2023-02-06T06:24:00.683Z,1.97
2023-02-06T06:26:28.854Z,1.27
2023-02-06T06:28:57.496Z,1.60
2023-02-06T06:31:25.439Z,1.23
2023-02-06T06:33:54.403Z,1.63
2023-02-06T06:36:22.313Z,1.47
2023-02-06T06:38:50.272Z,1.67
2023-02-06T06:41:19.800Z,1.40
2023-02-06T06:43:47.910Z,1.97
2023-02-06T06:46:16.672Z,1.37
2023-02-06T06:48:44.660Z,1.50
2023-02-06T06:51:12.484Z,1.47
2023-02-06T06:53:40.825Z,1.17
2023-02-06T06:56:11.432Z,1.47
2023-02-06T06:58:40.867Z,2.00
2023-02-06T07:01:09.678Z,1.77
2023-02-06T07:03:37.849Z,1.20
2023-02-06T07:06:06.338Z,1.23
2023-02-06T07:08:34.457Z,1.73
2023-02-06T07:11:02.447Z,1.63
2023-02-06T07:13:30.294Z,1.40
2023-02-06T07:15:59.494Z,2.07
2023-02-06T07:18:27.488Z,1.40
2023-02-06T07:20:55.337Z,1.60
2023-02-06T07:23:23.225Z,1.50
2023-02-06T07:25:51.273Z,1.90
2023-02-06T07:28:19.263Z,2.00
2023-02-06T07:30:48.156Z,2.10
2023-02-06T07:33:17.608Z,2.03
2023-02-06T07:35:45.458Z,1.87
2023-02-06T07:38:13.288Z,1.60
2023-02-06T07:40:45.547Z,1.90
2023-02-06T07:43:14.386Z,1.50
2023-02-06T07:45:42.452Z,1.63
2023-02-06T07:48:10.394Z,1.70
2023-02-06T07:50:39.792Z,1.57
2023-02-06T07:53:07.996Z,1.80
2023-02-06T07:55:37.892Z,2.10
2023-02-06T07:58:06.032Z,2.17
2023-02-06T08:00:34.109Z,2.00
2023-02-06T08:03:01.900Z,1.70
2023-02-06T08:05:29.853Z,2.00
2023-02-06T08:07:59.322Z,1.93
2023-02-06T08:10:27.583Z,2.10
2023-02-06T08:12:55.500Z,2.17
2023-02-06T08:15:23.591Z,1.63
2023-02-06T08:17:51.412Z,2.00
2023-02-06T08:20:19.384Z,2.07
2023-02-06T08:22:47.735Z,2.10
2023-02-06T08:25:17.224Z,2.20
2023-02-06T08:27:45.085Z,1.73
2023-02-06T08:30:14.523Z,2.07
2023-02-06T08:32:42.392Z,1.93
2023-02-06T08:35:10.279Z,2.20
2023-02-06T08:37:38.350Z,2.40
2023-02-06T08:40:07.017Z,2.30
2023-02-06T08:42:36.323Z,2.17
2023-02-06T08:45:04.422Z,2.67
2023-02-06T08:47:32.294Z,3.07
2023-02-06T08:50:02.888Z,2.30
2023-02-06T08:52:31.501Z,2.93
2023-02-06T08:54:59.337Z,2.72
2023-02-06T08:57:27.152Z,2.22
2023-02-06T08:59:56.985Z,2.17
2023-02-06T09:02:24.868Z,1.85
2023-02-06T09:04:52.716Z,2.45
2023-02-06T09:07:21.880Z,2.90
2023-02-06T09:09:49.732Z,1.98
2023-02-06T09:12:17.650Z,2.03
2023-02-06T09:14:45.957Z,2.45
2023-02-06T09:17:15.196Z,2.53
2023-02-06T09:19:43.195Z,2.40
2023-02-06T09:22:11.223Z,2.60
2023-02-06T09:24:39.179Z,1.50
2023-02-06T09:27:07.090Z,2.15
2023-02-06T09:29:35.320Z,1.85
2023-02-06T09:32:03.235Z,2.22
2023-02-06T09:34:32.476Z,1.83
2023-02-06T09:37:03.724Z,2.15
2023-02-06T09:39:32.252Z,1.65
2023-02-06T09:42:05.788Z,2.30
2023-02-06T09:44:37.293Z,2.08
2023-02-06T09:47:18.545Z,1.90
2023-02-06T09:49:51.182Z,1.92
2023-02-06T09:52:43.903Z,2.38
2023-02-06T09:55:19.333Z,2.47
2023-02-06T09:57:58.501Z,1.95
2023-02-06T10:00:38.774Z,1.77
2023-02-06T10:03:37.624Z,1.83
2023-02-06T10:06:19.141Z,2.15
2023-02-06T10:08:54.700Z,1.92
2023-02-06T10:11:33.678Z,2.30
2023-02-06T10:14:05.611Z,2.10
2023-02-06T10:16:39.676Z,2.22
2023-02-06T10:19:15.064Z,1.88
2023-02-06T10:21:49.506Z,1.77
2023-02-06T10:24:25.224Z,2.15
2023-02-06T10:26:54.613Z,2.38
2023-02-06T10:29:30.208Z,2.13
2023-02-06T10:32:14.224Z,2.35
2023-02-06T10:35:15.861Z,2.35
2023-02-06T10:38:14.982Z,2.05
2023-02-06T10:40:53.415Z,2.10
2023-02-06T10:43:32.122Z,2.08
2023-02-06T10:46:09.956Z,2.10
2023-02-06T10:48:44.582Z,2.08
2023-02-06T10:51:20.936Z,2.33
2023-02-06T10:53:52.904Z,2.22
2023-02-06T10:56:25.379Z,2.38
2023-02-06T10:58:57.114Z,2.58
2023-02-06T11:01:27.480Z,1.90
2023-02-06T11:03:59.941Z,2.15
2023-02-06T11:06:31.181Z,2.28
2023-02-06T11:09:00.602Z,2.00
2023-02-06T11:11:30.803Z,1.88
2023-02-06T11:14:02.754Z,2.58
2023-02-06T11:16:32.089Z,1.73
2023-02-06T11:19:09.924Z,1.63
2023-02-06T11:21:54.053Z,2.13
2023-02-06T11:24:25.179Z,1.83
2023-02-06T11:26:56.822Z,2.40
2023-02-06T11:29:28.075Z,2.08
2023-02-06T11:31:58.660Z,3.22
2023-02-06T11:34:32.465Z,1.85
2023-02-06T11:37:03.161Z,1.92
2023-02-06T11:39:34.533Z,1.67
2023-02-06T11:42:06.427Z,2.08
2023-02-06T11:44:39.748Z,2.22
2023-02-06T11:47:21.914Z,1.95
2023-02-06T11:49:49.975Z,1.50
2023-02-06T11:52:30.168Z,1.60
2023-02-06T11:55:02.314Z,1.67
2023-02-06T11:57:33.704Z,1.80
2023-02-06T12:00:06.160Z,1.85
2023-02-06T12:02:36.040Z,1.90
2023-02-06T12:05:11.858Z,2.15
2023-02-06T12:07:43.990Z,1.73
2023-02-06T12:10:17.521Z,2.07
2023-02-06T12:12:50.626Z,1.70
2023-02-06T12:15:46.686Z,1.80
2023-02-06T12:18:14.662Z,2.40
2023-02-06T12:20:51.334Z,1.70
2023-02-06T12:23:23.960Z,1.67
2023-02-06T12:25:57.709Z,1.93
2023-02-06T12:28:32.548Z,2.37
2023-02-06T12:31:05.039Z,2.03
2023-02-06T12:33:40.405Z,1.55
2023-02-06T12:36:16.798Z,1.60
2023-02-06T12:38:51.490Z,2.03
2023-02-06T12:41:41.977Z,1.67
2023-02-06T12:44:22.975Z,2.07
2023-02-06T12:46:56.150Z,1.50
2023-02-06T12:49:28.554Z,1.37
2023-02-06T12:52:04.871Z,2.23
2023-02-06T12:54:37.711Z,1.50
2023-02-06T12:57:13.737Z,1.30
2023-02-06T13:00:10.162Z,1.63
2023-02-06T13:03:05.369Z,1.77
2023-02-06T13:05:37.820Z,1.60
2023-02-06T13:08:08.925Z,1.70
2023-02-06T13:10:38.637Z,1.63
2023-02-06T13:13:08.195Z,1.50
2023-02-06T13:15:39.794Z,1.70
2023-02-06T13:18:50.760Z,2.27
2023-02-06T13:21:21.506Z,1.63
2023-02-06T13:24:12.643Z,1.10
2023-02-06T13:27:12.010Z,1.83
2023-02-06T13:29:42.846Z,2.13
2023-02-06T13:32:46.492Z,1.87
2023-02-06T13:35:23.136Z,1.60
2023-02-06T13:37:53.039Z,1.80
2023-02-06T13:40:30.619Z,2.30
2023-02-06T13:43:02.742Z,2.10
2023-02-06T13:45:35.325Z,1.83
2023-02-06T13:48:31.326Z,2.20
2023-02-06T13:51:18.638Z,1.97
2023-02-06T13:54:17.209Z,1.90
2023-02-06T13:57:01.089Z,1.60
2023-02-06T13:59:31.381Z,1.67
2023-02-06T14:02:05.347Z,1.90
2023-02-06T14:04:34.608Z,2.43
2023-02-06T14:07:23.942Z,2.00
2023-02-06T14:10:05.454Z,1.97
2023-02-06T14:12:49.828Z,2.87
2023-02-06T14:15:28.565Z,2.50
2023-02-06T14:18:09.000Z,2.40
2023-02-06T14:20:48.628Z,2.20
2023-02-06T14:23:38.500Z,2.00
2023-02-06T14:26:20.074Z,1.53
2023-02-06T14:28:59.046Z,1.90
2023-02-06T14:31:40.659Z,1.90
2023-02-06T14:34:24.456Z,1.47
2023-02-06T14:37:25.876Z,2.27
2023-02-06T14:39:55.783Z,1.70
2023-02-06T14:42:27.227Z,1.60
2023-02-06T14:44:58.998Z,1.97
2023-02-06T14:47:32.524Z,1.53
2023-02-06T14:50:02.800Z,1.57
2023-02-06T14:52:33.457Z,1.60
2023-02-06T14:55:01.459Z,1.57
2023-02-06T14:57:31.291Z,1.73
2023-02-06T15:00:01.572Z,1.40
2023-02-06T15:02:32.607Z,1.40
2023-02-06T15:05:02.582Z,1.73
2023-02-06T15:07:32.557Z,1.73
2023-02-06T15:10:05.810Z,1.80
2023-02-06T15:12:34.469Z,1.43
2023-02-06T15:15:05.457Z,1.30
2023-02-06T15:17:34.627Z,1.50
2023-02-06T15:20:26.120Z,1.57
2023-02-06T15:22:58.132Z,1.67
2023-02-06T15:25:41.366Z,1.80
2023-02-06T15:28:18.939Z,2.30
2023-02-06T15:30:47.551Z,2.10
2023-02-06T15:33:25.149Z,1.70
2023-02-06T15:35:56.326Z,1.70
2023-02-06T15:38:26.385Z,1.70
2023-02-06T15:40:57.141Z,1.70
2023-02-06T15:43:27.543Z,1.97
2023-02-06T15:45:57.973Z,2.10
2023-02-06T15:48:29.210Z,1.63
2023-02-06T15:51:01.221Z,2.07
2023-02-06T15:53:35.859Z,1.93
2023-02-06T15:56:09.939Z,1.97
2023-02-06T15:58:38.143Z,2.37
2023-02-06T16:01:14.346Z,1.90
2023-02-06T16:03:43.386Z,1.80
2023-02-06T16:06:16.815Z,1.73
2023-02-06T16:08:51.442Z,1.90
2023-02-06T16:11:37.117Z,1.87
2023-02-06T16:14:07.327Z,4.10
2023-02-06T16:16:35.356Z,2.43
2023-02-06T16:19:03.304Z,2.20
2023-02-06T16:21:35.477Z,2.40
2023-02-06T16:24:16.460Z,2.87
2023-02-06T16:26:48.138Z,2.43
2023-02-06T16:29:26.919Z,2.50
2023-02-06T16:32:01.440Z,1.93
2023-02-06T16:34:37.205Z,2.70
2023-02-06T16:37:13.024Z,2.63
2023-02-06T16:39:42.471Z,2.57
2023-02-06T16:42:15.047Z,2.27
2023-02-06T16:44:45.621Z,1.83
2023-02-06T16:47:16.064Z,2.40
2023-02-06T16:49:44.408Z,1.73
2023-02-06T16:52:19.243Z,1.87
2023-02-06T16:54:48.021Z,2.03
2023-02-06T16:57:22.808Z,2.33
2023-02-06T16:59:51.624Z,2.00
2023-02-06T17:02:19.561Z,1.47
2023-02-06T17:04:47.559Z,2.00
2023-02-06T17:07:19.475Z,2.00
2023-02-06T17:09:49.006Z,1.90
2023-02-06T17:12:19.606Z,1.90
2023-02-06T17:14:48.800Z,2.13
2023-02-06T17:17:18.826Z,1.53
2023-02-06T17:19:48.055Z,2.07
2023-02-06T17:22:17.628Z,1.87
2023-02-06T17:24:46.411Z,2.10
2023-02-06T17:27:16.640Z,2.00
2023-02-06T17:29:47.446Z,1.97
2023-02-06T17:32:18.250Z,1.80
2023-02-06T17:34:46.055Z,2.20
2023-02-06T17:37:20.953Z,2.60
2023-02-06T17:39:51.982Z,2.40
2023-02-06T17:42:22.034Z,1.90
2023-02-06T17:44:50.569Z,1.90
2023-02-06T17:47:18.460Z,1.93
2023-02-06T17:49:47.215Z,1.90
2023-02-06T17:52:15.461Z,2.00
2023-02-06T17:54:43.411Z,1.90
2023-02-06T17:57:13.417Z,1.57
2023-02-06T17:59:41.353Z,2.60
2023-02-06T18:02:12.712Z,2.10
2023-02-06T18:04:40.658Z,1.90
2023-02-06T18:07:08.941Z,2.53
2023-02-06T18:09:36.853Z,1.80
2023-02-06T18:12:05.024Z,2.10
2023-02-06T18:14:35.675Z,2.10
2023-02-06T18:17:04.110Z,1.90
2023-02-06T18:19:32.419Z,1.90
2023-02-06T18:22:00.519Z,2.07
2023-02-06T18:24:28.440Z,2.10
2023-02-06T18:26:56.427Z,1.60
2023-02-06T18:29:24.415Z,1.80
2023-02-06T18:31:53.666Z,1.80
2023-02-06T18:34:21.867Z,2.17
2023-02-06T18:36:50.022Z,2.20
2023-02-06T18:39:18.100Z,2.20
2023-02-06T18:42:03.408Z,2.30
2023-02-06T18:44:31.699Z,1.97
2023-02-06T18:47:00.891Z,2.07
2023-02-06T18:49:28.847Z,2.00
2023-02-06T18:51:56.757Z,2.10
2023-02-06T18:54:24.696Z,2.13
2023-02-06T18:56:52.732Z,2.40
2023-02-06T18:59:20.996Z,2.00
2023-02-06T19:01:49.235Z,2.13
2023-02-06T19:04:18.540Z,2.43
2023-02-06T19:06:47.064Z,1.97
2023-02-06T19:09:15.596Z,2.20
2023-02-06T19:11:44.210Z,2.33
2023-02-06T19:14:15.423Z,2.27
2023-02-06T19:16:44.737Z,3.00
2023-02-06T19:19:13.307Z,2.13
2023-02-06T19:21:44.314Z,2.23
2023-02-06T19:24:13.928Z,2.27
2023-02-06T19:26:42.816Z,1.30
2023-02-06T19:29:12.619Z,2.20
2023-02-06T19:31:40.681Z,2.23
2023-02-06T19:34:10.809Z,1.90
2023-02-06T19:36:38.694Z,2.17
2023-02-06T19:39:12.874Z,2.37
2023-02-06T19:41:43.673Z,1.83
2023-02-06T19:44:14.973Z,2.60
2023-02-06T19:46:42.791Z,2.10
2023-02-06T19:49:12.318Z,2.80
2023-02-06T19:51:42.372Z,1.63
2023-02-06T19:54:11.567Z,2.50
2023-02-06T19:56:41.816Z,1.90
2023-02-06T19:59:18.263Z,2.20
2023-02-06T20:01:46.927Z,2.33
2023-02-06T20:04:15.453Z,2.27
2023-02-06T20:06:44.608Z,2.23
2023-02-06T20:09:15.769Z,2.30
2023-02-06T20:11:43.746Z,2.30
2023-02-06T20:14:13.389Z,2.90
2023-02-06T20:16:42.838Z,2.00
2023-02-06T20:19:13.609Z,2.30
2023-02-06T20:21:44.532Z,2.17
2023-02-06T20:24:18.438Z,2.70
2023-02-06T20:26:46.718Z,3.00
2023-02-06T20:29:21.643Z,2.20
2023-02-06T20:31:50.488Z,2.77
2023-02-06T20:34:19.164Z,2.70
2023-02-06T20:36:47.707Z,2.37
2023-02-06T20:39:17.609Z,2.43
2023-02-06T20:41:46.453Z,2.20
2023-02-06T20:44:15.124Z,2.40
2023-02-06T20:46:43.989Z,2.40
2023-02-06T20:49:15.739Z,2.40
2023-02-06T20:51:43.853Z,2.20
2023-02-06T20:54:13.561Z,1.93
2023-02-06T20:56:43.172Z,1.83
2023-02-06T20:59:14.016Z,2.60
2023-02-06T21:01:42.228Z,2.37
2023-02-06T21:04:12.439Z,2.17
2023-02-06T21:06:41.464Z,2.57
2023-02-06T21:09:10.839Z,2.27
2023-02-06T21:11:40.930Z,2.40
2023-02-06T21:14:14.698Z,1.70
2023-02-06T21:16:43.741Z,2.40
2023-02-06T21:19:13.651Z,2.13
2023-02-06T21:21:44.896Z,2.60
2023-02-06T21:24:14.032Z,2.50
2023-02-06T21:26:42.097Z,1.90
2023-02-06T21:29:12.318Z,2.57
2023-02-06T21:31:40.359Z,2.40
2023-02-06T21:34:11.230Z,2.43
2023-02-06T21:36:40.164Z,2.40
2023-02-06T21:39:08.950Z,2.00
2023-02-06T21:41:37.752Z,2.50
2023-02-06T21:44:06.229Z,2.53
2023-02-06T21:46:35.673Z,2.10
2023-02-06T21:49:03.726Z,2.80
2023-02-06T21:51:31.716Z,2.03
2023-02-06T21:53:59.884Z,2.53
2023-02-06T21:56:29.150Z,2.50
2023-02-06T21:58:58.097Z,1.83
2023-02-06T22:01:27.948Z,2.80
2023-02-06T22:04:00.964Z,2.53
2023-02-06T22:06:29.271Z,2.63
2023-02-06T22:09:05.234Z,2.50
2023-02-06T22:11:33.571Z,2.50
2023-02-06T22:14:03.347Z,2.60
2023-02-06T22:16:31.364Z,2.30
2023-02-06T22:19:01.780Z,3.00
2023-02-06T22:21:31.461Z,2.50
2023-02-06T22:24:02.254Z,2.23
2023-02-06T22:26:31.198Z,2.37
2023-02-06T22:28:59.682Z,3.00
2023-02-06T22:31:30.057Z,2.80
2023-02-06T22:34:00.426Z,2.67
2023-02-06T22:36:30.348Z,2.40
2023-02-06T22:39:00.663Z,2.13
2023-02-06T22:41:29.315Z,2.60
2023-02-06T22:43:57.353Z,2.30
2023-02-06T22:46:27.339Z,2.33
2023-02-06T22:48:55.861Z,2.70
2023-02-06T22:51:25.556Z,2.37
2023-02-06T22:53:54.232Z,2.30
2023-02-06T22:56:31.533Z,2.07
2023-02-06T22:59:01.775Z,2.37
2023-02-06T23:01:33.313Z,2.43
2023-02-06T23:04:03.651Z,2.60
2023-02-06T23:06:34.212Z,2.30
2023-02-06T23:09:03.589Z,1.93
2023-02-06T23:11:32.345Z,1.60
2023-02-06T23:14:01.930Z,2.50
2023-02-06T23:16:31.910Z,2.77
2023-02-06T23:19:01.889Z,2.37
2023-02-06T23:21:29.778Z,2.80
2023-02-06T23:24:00.765Z,2.60
2023-02-06T23:26:29.692Z,2.33
2023-02-06T23:28:58.780Z,2.53
2023-02-06T23:31:27.979Z,2.87
2023-02-06T23:33:56.533Z,2.57
2023-02-06T23:36:26.787Z,3.13
2023-02-06T23:38:55.577Z,3.00
2023-02-06T23:41:26.805Z,3.23
2023-02-06T23:43:57.260Z,2.83
2023-02-06T23:46:26.037Z,1.83
2023-02-06T23:48:54.428Z,3.13
2023-02-06T23:51:22.714Z,3.87
2023-02-06T23:53:51.292Z,3.67
2023-02-06T23:56:21.267Z,3.50
2023-02-06T23:58:51.312Z,3.63
